createdAt,value
2023-04-11T00:02:12.457Z,60.50
2023-04-11T00:04:41.425Z,60.10
2023-04-11T00:07:10.646Z,59.59
2023-04-11T00:09:39.587Z,58.83
2023-04-11T00:12:09.405Z,59.12
2023-04-11T00:14:39.113Z,59.80
2023-04-11T00:17:10.603Z,59.60
2023-04-11T00:19:40.998Z,59.35
2023-04-11T00:22:11.414Z,59.82
2023-04-11T00:24:41.175Z,60.29
2023-04-11T00:27:10.036Z,59.73
2023-04-11T00:29:39.379Z,59.87
2023-04-11T00:32:08.296Z,60.44
2023-04-11T00:34:38.027Z,60.70
2023-04-11T00:37:07.535Z,60.50
2023-04-11T00:39:36.447Z,60.96
2023-04-11T00:42:09.413Z,61.25
2023-04-11T00:44:38.690Z,61.62
2023-04-11T00:47:09.136Z,61.75
2023-04-11T00:49:38.741Z,62.48
2023-04-11T00:52:08.127Z,62.73
2023-04-11T00:54:37.022Z,63.42
2023-04-11T00:57:08.354Z,63.81
2023-04-11T00:59:37.354Z,64.76
2023-04-11T01:02:07.112Z,64.69
2023-04-11T01:04:36.174Z,65.26
2023-04-11T01:07:10.279Z,64.98
2023-04-11T01:09:40.206Z,65.43
2023-04-11T01:12:09.279Z,65.42
2023-04-11T01:14:38.562Z,65.49
2023-04-11T01:17:08.638Z,65.52
2023-04-11T01:19:37.702Z,65.75
2023-04-11T01:22:09.541Z,66.41
2023-04-11T01:24:38.659Z,66.20
2023-04-11T01:27:08.433Z,65.67
2023-04-11T01:29:38.192Z,64.86
2023-04-11T01:32:07.511Z,64.79
2023-04-11T01:34:39.185Z,64.68
2023-04-11T01:37:08.307Z,65.09
2023-04-11T01:39:37.619Z,64.90
2023-04-11T01:42:08.053Z,65.59
2023-04-11T01:44:38.883Z,65.43
2023-04-11T01:47:08.235Z,65.17
2023-04-11T01:49:37.813Z,65.10
2023-04-11T01:52:06.980Z,65.31
2023-04-11T01:54:36.126Z,64.80
2023-04-11T01:57:07.971Z,64.13
2023-04-11T01:59:37.953Z,64.02
2023-04-11T02:02:07.145Z,64.81
2023-04-11T02:04:36.586Z,63.47
2023-04-11T02:07:05.357Z,61.07
2023-04-11T02:09:34.975Z,59.96
2023-04-11T02:12:04.062Z,60.40
2023-04-11T02:14:47.238Z,60.50
2023-04-11T02:17:16.469Z,59.74
2023-04-11T02:19:48.792Z,57.15
2023-04-11T02:22:18.041Z,58.94
2023-04-11T02:24:48.503Z,58.98
2023-04-11T02:27:17.665Z,57.75
2023-04-11T02:29:46.972Z,57.70
2023-04-11T02:32:17.925Z,57.61
2023-04-11T02:34:47.929Z,56.84
2023-04-11T02:37:16.851Z,56.47
2023-04-11T02:39:46.435Z,56.86
2023-04-11T02:42:15.586Z,56.60
2023-04-11T02:44:44.540Z,55.93
2023-04-11T02:47:13.661Z,55.14
2023-04-11T02:49:43.459Z,54.64
2023-04-11T02:52:15.647Z,53.60
2023-04-11T02:54:45.554Z,53.01
2023-04-11T02:57:14.451Z,52.20
2023-04-11T02:59:43.820Z,51.76
2023-04-11T03:02:14.159Z,51.65
2023-04-11T03:04:44.044Z,51.50
2023-04-11T03:07:17.402Z,51.21
2023-04-11T03:09:46.588Z,50.60
2023-04-11T03:12:17.076Z,49.70
2023-04-11T03:14:55.145Z,49.75
2023-04-11T03:17:24.215Z,50.12
2023-04-11T03:19:53.601Z,49.77
2023-04-11T03:22:24.956Z,49.71
2023-04-11T03:24:54.095Z,49.14
2023-04-11T03:27:24.913Z,48.38
2023-04-11T03:29:58.278Z,48.18
2023-04-11T03:32:35.816Z,48.35
2023-04-11T03:35:04.824Z,48.59
2023-04-11T03:37:34.104Z,47.58
2023-04-11T03:40:05.180Z,48.67
2023-04-11T03:42:34.065Z,47.98
2023-04-11T03:45:03.665Z,47.77
2023-04-11T03:47:32.847Z,47.50
2023-04-11T03:50:02.637Z,47.11
2023-04-11T03:52:38.818Z,47.96
2023-04-11T03:55:13.257Z,48.60
2023-04-11T03:57:42.259Z,48.34
2023-04-11T04:00:12.457Z,48.79
2023-04-11T04:02:48.786Z,47.01
2023-04-11T04:05:18.154Z,44.91
2023-04-11T04:07:47.382Z,44.11
2023-04-11T04:10:25.695Z,43.69
2023-04-11T04:12:56.419Z,42.32
2023-04-11T04:15:29.572Z,42.62
2023-04-11T04:17:59.312Z,42.34
2023-04-11T04:20:44.111Z,40.84
2023-04-11T04:23:15.039Z,38.75
2023-04-11T04:26:14.313Z,39.15
2023-04-11T04:28:49.307Z,38.72
2023-04-11T04:31:34.733Z,38.21
2023-04-11T04:34:11.449Z,37.99
2023-04-11T04:36:48.775Z,38.25
2023-04-11T04:39:26.386Z,38.27
2023-04-11T04:41:59.881Z,37.16
2023-04-11T04:44:36.681Z,36.86
2023-04-11T04:47:13.075Z,35.54
2023-04-11T04:49:42.498Z,36.25
2023-04-11T04:52:12.226Z,35.04
2023-04-11T04:54:41.351Z,33.85
2023-04-11T04:57:10.726Z,34.26
2023-04-11T04:59:39.927Z,34.51
2023-04-11T05:02:13.510Z,34.87
2023-04-11T05:04:45.679Z,34.14
2023-04-11T05:07:16.068Z,34.52
2023-04-11T05:09:47.914Z,32.93
2023-04-11T05:12:28.106Z,32.50
2023-04-11T05:15:02.687Z,32.48
2023-04-11T05:17:33.608Z,32.77
2023-04-11T05:20:07.504Z,32.55
2023-04-11T05:22:38.948Z,32.51
2023-04-11T05:25:09.913Z,32.27
2023-04-11T05:27:40.121Z,32.52
2023-04-11T05:30:11.697Z,31.93
2023-04-11T05:32:43.794Z,31.59
2023-04-11T05:35:13.113Z,32.85
2023-04-11T05:37:49.259Z,31.85
2023-04-11T05:40:18.553Z,32.09
2023-04-11T05:42:47.653Z,32.18
2023-04-11T05:45:16.493Z,31.68
2023-04-11T05:47:45.670Z,32.38
2023-04-11T05:50:16.670Z,33.11
2023-04-11T05:52:45.812Z,33.71
2023-04-11T05:55:15.212Z,33.32
2023-04-11T05:57:44.268Z,34.17
2023-04-11T06:00:15.351Z,33.95
2023-04-11T06:02:45.503Z,34.51
2023-04-11T06:05:16.961Z,34.72
2023-04-11T06:07:47.028Z,34.57
2023-04-11T06:10:15.816Z,34.85
2023-04-11T06:12:44.771Z,35.28
2023-04-11T06:15:15.159Z,35.22
2023-04-11T06:17:44.495Z,36.84
2023-04-11T06:20:14.129Z,36.28
2023-04-11T06:26:37.121Z,36.20
2023-04-11T06:29:24.698Z,36.00
2023-04-11T06:31:56.873Z,36.08
2023-04-11T06:34:27.427Z,35.73
2023-04-11T06:36:56.845Z,35.14
2023-04-11T06:39:26.991Z,34.25
2023-04-11T06:41:57.380Z,33.48
2023-04-11T06:44:30.060Z,33.50
2023-04-11T06:47:06.764Z,32.74
2023-04-11T06:49:58.777Z,32.55
2023-04-11T06:52:45.061Z,32.42
2023-04-11T07:00:32.492Z,32.01
2023-04-11T07:03:11.195Z,31.43
2023-04-11T07:05:58.621Z,29.55
2023-04-11T07:09:06.439Z,29.60
2023-04-11T07:12:12.462Z,29.62
2023-04-11T07:18:07.818Z,30.29
2023-04-11T07:20:37.510Z,31.05
2023-04-11T07:23:07.258Z,29.92
2023-04-11T07:25:36.193Z,29.56
2023-04-11T07:28:09.795Z,30.14
2023-04-11T07:30:39.112Z,29.53
2023-04-11T07:33:08.594Z,29.34
2023-04-11T07:35:37.928Z,30.14
2023-04-11T07:38:07.226Z,29.68
2023-04-11T07:40:36.508Z,29.61
2023-04-11T07:43:11.634Z,29.38
2023-04-11T07:45:41.785Z,28.97
2023-04-11T07:48:11.016Z,30.04
2023-04-11T07:50:40.384Z,28.49
2023-04-11T07:53:11.701Z,28.05
2023-04-11T07:55:41.459Z,28.18
2023-04-11T07:58:10.531Z,29.01
2023-04-11T08:00:39.962Z,29.51
2023-04-11T08:03:10.646Z,28.54
2023-04-11T08:05:40.994Z,29.26
2023-04-11T08:08:10.155Z,27.11
2023-04-11T08:10:40.279Z,27.38
2023-04-11T08:13:09.309Z,27.83
2023-04-11T08:15:40.111Z,27.61
2023-04-11T08:20:42.122Z,26.11
2023-04-11T08:23:12.169Z,26.30
2023-04-11T08:25:42.240Z,27.86
2023-04-11T08:28:12.461Z,27.63
2023-04-11T08:30:41.744Z,28.05
2023-04-11T08:33:11.422Z,28.71
2023-04-11T08:35:43.857Z,28.43
2023-04-11T08:42:26.586Z,27.67
2023-04-11T08:45:09.722Z,28.86
2023-04-11T08:47:41.091Z,27.99
2023-04-11T08:50:12.655Z,27.67
2023-04-11T08:52:45.176Z,28.72
2023-04-11T08:55:15.132Z,27.79
2023-04-11T08:57:44.741Z,28.03
2023-04-11T09:00:19.897Z,28.88
2023-04-11T09:03:05.201Z,28.19
2023-04-11T09:05:40.590Z,27.72
2023-04-11T09:08:16.107Z,28.52
2023-04-11T09:10:50.405Z,28.08
2023-04-11T09:13:31.995Z,27.69
2023-04-11T09:16:13.695Z,27.77
2023-04-11T09:18:48.288Z,28.10
2023-04-11T09:21:20.450Z,28.03
2023-04-11T09:23:51.794Z,28.70
2023-04-11T09:26:32.191Z,28.79
2023-04-11T09:29:03.414Z,27.12
2023-04-11T09:31:46.372Z,27.14
2023-04-11T09:34:28.983Z,27.19
2023-04-11T09:36:58.803Z,28.10
2023-04-11T09:39:31.313Z,27.60
2023-04-11T09:42:01.924Z,26.92
2023-04-11T09:44:40.535Z,27.28
2023-04-11T09:47:11.022Z,27.33
2023-04-11T09:49:41.595Z,27.71
2023-04-11T09:52:11.205Z,27.98
2023-04-11T09:54:40.882Z,28.59
2023-04-11T09:57:11.324Z,28.31
2023-04-11T09:59:42.672Z,28.34
2023-04-11T10:02:12.973Z,27.94
2023-04-11T10:04:42.993Z,27.25
2023-04-11T10:07:19.569Z,26.58
2023-04-11T10:09:49.703Z,27.70
2023-04-11T10:12:37.198Z,28.40
2023-04-11T10:15:10.494Z,27.62
2023-04-11T10:17:41.718Z,28.86
2023-04-11T10:20:46.361Z,28.11
2023-04-11T10:23:17.468Z,27.01
2023-04-11T10:25:52.843Z,27.77
2023-04-11T10:28:36.877Z,27.08
2023-04-11T10:31:14.555Z,27.96
2023-04-11T10:34:20.038Z,26.86
2023-04-11T10:37:09.581Z,26.83
2023-04-11T10:40:02.911Z,27.20
2023-04-11T10:42:35.965Z,27.64
2023-04-11T10:45:30.293Z,26.50
2023-04-11T10:48:06.832Z,26.91
2023-04-11T10:50:43.559Z,26.47
2023-04-11T10:53:37.890Z,27.37
2023-04-11T10:56:07.512Z,26.43
2023-04-11T10:58:40.733Z,27.23
2023-04-11T11:01:26.630Z,26.88
2023-04-11T11:04:06.019Z,26.60
2023-04-11T11:06:46.300Z,26.15
2023-04-11T11:09:24.821Z,27.42
2023-04-11T11:12:17.224Z,26.38
2023-04-11T11:14:48.516Z,26.71
2023-04-11T11:17:18.766Z,26.89
2023-04-11T11:19:49.588Z,27.58
2023-04-11T11:22:26.490Z,27.91
2023-04-11T11:24:56.273Z,27.59
2023-04-11T11:27:26.448Z,27.18
2023-04-11T11:29:55.797Z,26.69
2023-04-11T11:32:34.027Z,26.97
2023-04-11T11:35:14.524Z,27.07
2023-04-11T11:37:44.478Z,25.99
2023-04-11T11:40:14.407Z,26.57
2023-04-11T11:42:44.069Z,26.45
2023-04-11T11:45:21.283Z,27.09
2023-04-11T11:47:52.110Z,27.11
2023-04-11T11:50:29.941Z,26.60
2023-04-11T11:53:16.831Z,26.60
2023-04-11T11:55:46.684Z,26.92
2023-04-11T11:58:16.506Z,27.42
2023-04-11T12:00:51.019Z,27.68
2023-04-11T12:03:24.909Z,27.06
2023-04-11T12:05:59.172Z,27.75
2023-04-11T12:08:28.510Z,27.72
2023-04-11T12:10:57.905Z,27.49
2023-04-11T12:13:28.802Z,27.26
2023-04-11T12:16:02.691Z,28.04
2023-04-11T12:18:32.197Z,28.63
2023-04-11T12:21:01.697Z,27.98
2023-04-11T12:23:31.109Z,28.11
2023-04-11T12:26:00.722Z,28.63
2023-04-11T12:28:30.292Z,28.14
2023-04-11T12:30:59.673Z,28.87
2023-04-11T12:33:29.262Z,28.70
2023-04-11T12:35:59.121Z,29.27
2023-04-11T12:38:28.544Z,30.05
2023-04-11T12:41:19.692Z,30.15
2023-04-11T12:43:47.358Z,29.17
2023-04-11T12:46:18.260Z,29.70
2023-04-11T12:48:48.074Z,30.44
2023-04-11T12:51:17.477Z,30.43
2023-04-11T12:53:46.898Z,31.16
2023-04-11T12:56:16.627Z,31.57
2023-04-11T12:58:46.049Z,32.16
2023-04-11T13:01:15.229Z,32.53
2023-04-11T13:03:44.842Z,33.09
2023-04-11T13:06:14.232Z,32.87
2023-04-11T13:08:43.924Z,32.49
2023-04-11T13:11:13.268Z,33.00
2023-04-11T13:13:42.690Z,33.11
2023-04-11T13:16:13.131Z,33.50
2023-04-11T13:18:42.503Z,34.00
2023-04-11T13:21:11.918Z,34.54
2023-04-11T13:23:42.134Z,34.34
2023-04-11T13:26:11.586Z,35.23
2023-04-11T13:28:41.226Z,35.27
2023-04-11T13:31:11.579Z,35.50
2023-04-11T13:33:45.819Z,36.22
2023-04-11T13:36:17.096Z,35.77
2023-04-11T13:38:50.848Z,35.91
2023-04-11T13:41:20.995Z,36.52
2023-04-11T13:43:51.255Z,36.61
2023-04-11T13:46:22.880Z,37.79
2023-04-11T13:48:52.408Z,38.00
2023-04-11T13:51:21.705Z,38.11
2023-04-11T13:53:51.365Z,37.00
2023-04-11T13:56:21.669Z,37.20
2023-04-11T13:58:52.031Z,37.43
2023-04-11T14:01:22.008Z,37.47
2023-04-11T14:03:52.226Z,38.19
2023-04-11T14:06:22.101Z,39.08
2023-04-11T14:08:52.817Z,39.02
2023-04-11T14:11:22.928Z,38.46
2023-04-11T14:13:52.696Z,39.50
2023-04-11T14:16:22.138Z,38.33
2023-04-11T14:18:51.538Z,38.63
2023-04-11T14:21:21.711Z,38.75
2023-04-11T14:23:51.081Z,39.17
2023-04-11T14:26:20.526Z,39.10
2023-04-11T14:28:50.193Z,38.86
2023-04-11T14:31:19.684Z,39.29
2023-04-11T14:33:49.557Z,39.49
2023-04-11T14:36:18.868Z,39.42
2023-04-11T14:38:48.252Z,39.77
2023-04-11T14:41:18.991Z,39.95
2023-04-11T14:43:48.449Z,40.17
2023-04-11T14:46:18.435Z,40.19
2023-04-11T14:48:48.136Z,40.95
2023-04-11T14:51:17.324Z,40.48
2023-04-11T14:53:51.712Z,40.46
2023-04-11T14:56:21.145Z,40.97
2023-04-11T14:58:52.036Z,40.62
2023-04-11T15:01:21.762Z,40.13
2023-04-11T15:03:51.369Z,40.47
2023-04-11T15:06:21.072Z,40.43
2023-04-11T15:08:51.206Z,40.49
2023-04-11T15:11:22.098Z,40.72
2023-04-11T15:13:54.215Z,41.40
2023-04-11T15:16:24.754Z,41.53
2023-04-11T15:18:54.238Z,42.03
2023-04-11T15:21:23.806Z,42.36
2023-04-11T15:23:53.204Z,43.53
2023-04-11T15:26:23.546Z,42.98
2023-04-11T15:28:52.778Z,43.42
2023-04-11T15:31:27.416Z,43.20
2023-04-11T15:34:00.820Z,43.29
2023-04-11T15:36:30.533Z,43.45
2023-04-11T15:39:01.586Z,43.11
2023-04-11T15:41:33.162Z,44.11
2023-04-11T15:44:02.785Z,43.57
2023-04-11T15:46:33.000Z,43.50
2023-04-11T15:49:03.422Z,43.81
2023-04-11T15:51:33.349Z,44.16
2023-04-11T15:54:02.817Z,44.18
2023-04-11T15:56:34.847Z,44.29
2023-04-11T15:59:04.396Z,44.71
2023-04-11T16:01:33.638Z,44.77
2023-04-11T16:04:03.776Z,44.87
2023-04-11T16:06:33.900Z,44.85
2023-04-11T16:09:03.334Z,44.08
2023-04-11T16:11:33.051Z,44.45
2023-04-11T16:14:03.338Z,44.40
2023-04-11T16:16:32.999Z,44.83
2023-04-11T16:19:02.733Z,45.05
2023-04-11T16:21:32.772Z,45.83
2023-04-11T16:24:02.474Z,45.34
2023-04-11T16:26:31.798Z,45.98
2023-04-11T16:29:01.283Z,45.64
2023-04-11T16:31:31.119Z,45.75
2023-04-11T16:34:00.772Z,46.11
2023-04-11T16:36:31.012Z,46.83
2023-04-11T16:39:00.611Z,47.03
2023-04-11T16:41:30.762Z,47.74
2023-04-11T16:43:59.829Z,46.98
2023-04-11T16:46:29.953Z,45.73
2023-04-11T16:49:01.657Z,45.65
2023-04-11T16:51:31.198Z,46.54
2023-04-11T16:54:00.588Z,45.98
2023-04-11T16:56:30.185Z,46.06
2023-04-11T16:58:59.501Z,46.07
2023-04-11T17:01:29.187Z,47.48
2023-04-11T17:03:59.360Z,48.32
2023-04-11T17:06:29.527Z,48.31
2023-04-11T17:08:59.121Z,48.26
2023-04-11T17:11:28.639Z,49.54
2023-04-11T17:13:58.156Z,50.14
2023-04-11T17:16:28.599Z,49.61
2023-04-11T17:18:59.002Z,49.02
2023-04-11T17:21:28.612Z,49.10
2023-04-11T17:23:58.276Z,49.53
2023-04-11T17:26:27.794Z,49.73
2023-04-11T17:28:57.103Z,48.87
2023-04-11T17:31:29.350Z,49.31
2023-04-11T17:33:59.404Z,48.92
2023-04-11T17:36:30.169Z,49.88
2023-04-11T17:38:59.673Z,50.93
2023-04-11T17:41:29.104Z,51.00
2023-04-11T17:43:58.908Z,50.20
2023-04-11T17:46:28.661Z,50.39
2023-04-11T17:48:58.402Z,49.98
2023-04-11T17:51:29.337Z,49.21
2023-04-11T17:54:02.771Z,49.20
2023-04-11T17:56:32.744Z,51.58
2023-04-11T17:59:02.121Z,51.48
2023-04-11T18:01:33.589Z,51.36
2023-04-11T18:04:03.355Z,51.05
2023-04-11T18:06:37.435Z,50.49
2023-04-11T18:09:07.089Z,51.41
2023-04-11T18:11:37.610Z,51.20
2023-04-11T18:14:07.042Z,50.29
2023-04-11T18:16:37.276Z,50.02
2023-04-11T18:19:07.315Z,50.15
2023-04-11T18:21:37.000Z,50.30
2023-04-11T18:24:06.512Z,50.22
2023-04-11T18:26:36.729Z,50.32
2023-04-11T18:29:06.413Z,50.00
2023-04-11T18:31:36.262Z,51.05
2023-04-11T18:34:07.073Z,51.44
2023-04-11T18:36:37.634Z,51.15
2023-04-11T18:39:07.165Z,51.37
2023-04-11T18:41:36.965Z,52.31
2023-04-11T18:44:08.200Z,52.80
2023-04-11T18:46:39.340Z,50.88
2023-04-11T18:49:09.583Z,51.28
2023-04-11T18:51:39.495Z,51.78
2023-04-11T18:54:08.949Z,52.60
2023-04-11T18:56:40.137Z,54.18
2023-04-11T18:59:10.792Z,54.87
2023-04-11T19:01:40.952Z,55.31
2023-04-11T19:04:11.276Z,56.13
2023-04-11T19:06:40.870Z,57.04
2023-04-11T19:09:10.394Z,57.71
2023-04-11T19:11:39.945Z,56.69
2023-04-11T19:14:12.607Z,56.25
2023-04-11T19:16:45.316Z,56.48
2023-04-11T19:19:14.855Z,56.93
2023-04-11T19:21:44.134Z,57.20
2023-04-11T19:24:13.734Z,56.83
2023-04-11T19:26:43.026Z,57.37
2023-04-11T19:29:12.666Z,57.74
2023-04-11T19:31:42.156Z,57.26
2023-04-11T19:34:11.902Z,57.31
2023-04-11T19:36:41.841Z,57.79
2023-04-11T19:39:11.961Z,57.29
2023-04-11T19:41:46.579Z,57.16
2023-04-11T19:44:16.097Z,57.77
2023-04-11T19:46:45.740Z,57.09
2023-04-11T19:49:15.221Z,57.25
2023-04-11T19:51:44.895Z,57.79
2023-04-11T19:54:14.383Z,57.70
2023-04-11T19:56:46.763Z,57.56
2023-04-11T19:59:16.974Z,57.86
2023-04-11T20:01:48.062Z,57.45
2023-04-11T20:04:20.216Z,57.76
2023-04-11T20:06:53.077Z,57.57
2023-04-11T20:09:24.647Z,58.15
2023-04-11T20:11:59.714Z,58.22
2023-04-11T20:14:31.900Z,58.42
2023-04-11T20:17:04.267Z,56.66
2023-04-11T20:19:38.875Z,55.64
2023-04-11T20:22:13.013Z,54.74
2023-04-11T20:24:47.756Z,53.58
2023-04-11T20:27:20.166Z,53.08
2023-04-11T20:29:51.782Z,52.43
2023-04-11T20:32:23.143Z,52.16
2023-04-11T20:34:55.139Z,51.68
2023-04-11T20:37:27.223Z,51.67
2023-04-11T20:39:59.530Z,51.68
2023-04-11T20:42:33.268Z,51.64
2023-04-11T20:45:12.035Z,52.18
2023-04-11T20:47:53.474Z,52.86
2023-04-11T20:50:28.446Z,52.41
2023-04-11T20:53:00.960Z,52.91
2023-04-11T20:55:35.799Z,52.34
2023-04-11T20:58:12.795Z,52.36
2023-04-11T21:00:46.483Z,53.35
2023-04-11T21:03:20.650Z,52.49
2023-04-11T21:05:54.193Z,52.44
2023-04-11T21:08:27.921Z,53.01
2023-04-11T21:11:00.947Z,53.53
2023-04-11T21:13:33.705Z,53.11
2023-04-11T21:16:08.265Z,52.85
2023-04-11T21:18:42.761Z,54.07
2023-04-11T21:21:15.897Z,53.84
2023-04-11T21:23:49.503Z,54.50
2023-04-11T21:26:23.278Z,54.18
2023-04-11T21:28:57.138Z,53.22
2023-04-11T21:31:29.271Z,54.43
2023-04-11T21:34:02.811Z,54.38
2023-04-11T21:36:36.645Z,55.20
2023-04-11T21:39:12.112Z,55.42
2023-04-11T21:41:45.212Z,55.70
2023-04-11T21:44:19.515Z,56.92
2023-04-11T21:46:53.405Z,55.76
2023-04-11T21:49:27.157Z,56.31
2023-04-11T21:52:02.633Z,56.59
2023-04-11T21:54:39.742Z,56.18
2023-04-11T21:57:13.498Z,56.77
2023-04-11T21:59:46.585Z,57.39
2023-04-11T22:02:21.306Z,57.30
2023-04-11T22:05:06.477Z,56.96
2023-04-11T22:07:50.218Z,56.34
2023-04-11T22:10:41.201Z,56.16
2023-04-11T22:13:21.470Z,57.30
2023-04-11T22:16:02.054Z,57.61
2023-04-11T22:18:40.884Z,56.94
2023-04-11T22:21:15.388Z,56.82
2023-04-11T22:23:50.474Z,57.60
2023-04-11T22:26:37.788Z,58.35
2023-04-11T22:29:12.790Z,57.90
2023-04-11T22:31:48.421Z,57.55
2023-04-11T22:34:23.712Z,56.69
2023-04-11T22:36:57.613Z,56.27
2023-04-11T22:39:31.291Z,57.35
2023-04-11T22:42:04.512Z,57.56
2023-04-11T22:44:38.371Z,57.98
2023-04-11T22:47:15.902Z,57.95
2023-04-11T22:49:49.428Z,58.29
2023-04-11T22:52:26.763Z,57.74
2023-04-11T22:54:59.531Z,57.90
2023-04-11T22:57:37.272Z,58.34
2023-04-11T23:00:17.779Z,58.51
2023-04-11T23:02:51.766Z,57.73
2023-04-11T23:05:26.066Z,59.11
2023-04-11T23:07:58.216Z,58.81
2023-04-11T23:10:32.025Z,58.90
2023-04-11T23:13:07.351Z,58.43
2023-04-11T23:15:43.420Z,59.01
2023-04-11T23:18:17.329Z,58.74
2023-04-11T23:20:53.036Z,58.94
2023-04-11T23:23:26.197Z,58.48
2023-04-11T23:26:02.418Z,57.70
2023-04-11T23:28:36.184Z,58.72
2023-04-11T23:31:10.221Z,59.61
2023-04-11T23:33:45.404Z,59.79
2023-04-11T23:36:20.473Z,58.83
2023-04-11T23:38:54.247Z,59.31
2023-04-11T23:41:28.227Z,59.41
2023-04-11T23:44:02.091Z,59.92
2023-04-11T23:46:35.657Z,60.16
2023-04-11T23:49:09.141Z,59.90
2023-04-11T23:51:48.441Z,60.27
2023-04-11T23:54:23.068Z,60.46
2023-04-11T23:56:57.751Z,60.08
2023-04-11T23:59:32.864Z,60.47
